Time;durP1;ratioP1;P1;durP2;ratioP2;P2;SDS_P1;SDS_P2;PMS_P1;PMS_P2;Temp;Humidity;BMP_temperature;BMP_pressure;BME280_temperature;BME280_humidity;BME280_pressure;Samples;Min_cycle;Max_cycle;Signal;HPM_P1;HPM_P2
2023/05/21 00:00:38;;;;;;;0.50;0.50;;;15.60;59.80;;;;;;4083608;28;20499;-53
2023/05/21 00:03:01;;;;;;;2.38;0.88;;;15.70;59.80;;;;;;4080231;28;20566;-48
2023/05/21 00:05:23;;;;;;;1.05;0.82;;;15.60;59.70;;;;;;4068416;29;20368;-48
2023/05/21 00:07:46;;;;;;;1.83;0.88;;;15.60;59.70;;;;;;4081327;29;20049;-48
2023/05/21 00:10:09;;;;;;;1.23;0.73;;;15.70;59.80;;;;;;4083094;28;20476;-48
2023/05/21 00:12:31;;;;;;;1.13;0.60;;;15.60;59.70;;;;;;4090688;28;20043;-53
2023/05/21 00:14:54;;;;;;;0.73;0.65;;;15.60;59.70;;;;;;4084726;28;20052;-56
2023/05/21 00:17:17;;;;;;;0.80;0.80;;;15.60;59.70;;;;;;4085198;29;20476;-53
2023/05/21 00:19:39;;;;;;;1.05;0.80;;;15.60;59.70;;;;;;4075444;29;20036;-50
2023/05/21 00:22:02;;;;;;;0.80;0.60;;;15.60;59.70;;;;;;4089276;28;20480;-53
2023/05/21 00:24:24;;;;;;;2.00;1.35;;;15.60;59.60;;;;;;4085243;28;20070;-54
2023/05/21 00:26:47;;;;;;;1.10;0.60;;;15.60;59.70;;;;;;4083050;29;20044;-52
2023/05/21 00:29:10;;;;;;;1.02;0.70;;;15.60;59.60;;;;;;4071201;29;20122;-52
2023/05/21 00:31:32;;;;;;;1.00;0.60;;;15.60;59.40;;;;;;4081114;29;20153;-49
2023/05/21 00:33:55;;;;;;;1.10;0.90;;;15.60;59.30;;;;;;4084893;28;20571;-52
2023/05/21 00:36:17;;;;;;;0.98;0.70;;;15.60;59.20;;;;;;4080040;29;20056;-53
2023/05/21 00:38:44;;;;;;;1.63;0.70;;;15.60;59.20;;;;;;4076099;29;20661;-52
2023/05/21 00:41:06;;;;;;;1.30;0.75;;;15.60;58.90;;;;;;4085933;28;20051;-52
2023/05/21 00:43:29;;;;;;;0.50;0.50;;;15.70;59.10;;;;;;4083816;28;20126;-48
2023/05/21 00:45:52;;;;;;;0.95;0.60;;;15.60;59.50;;;;;;4080060;29;20164;-56
2023/05/21 00:48:15;;;;;;;1.03;0.50;;;15.70;58.80;;;;;;4088783;28;20694;-50
2023/05/21 00:50:40;;;;;;;0.70;0.60;;;15.70;58.60;;;;;;4088126;28;20289;-51
2023/05/21 00:53:03;;;;;;;2.85;0.80;;;15.70;58.40;;;;;;4082799;28;20035;-48
2023/05/21 00:55:26;;;;;;;0.60;0.50;;;15.70;58.30;;;;;;4079514;28;20052;-48
2023/05/21 00:57:49;;;;;;;1.00;0.43;;;15.70;58.30;;;;;;4081311;29;20038;-46
2023/05/21 01:00:13;;;;;;;0.45;0.43;;;15.70;58.20;;;;;;4082732;28;20154;-48
2023/05/21 01:02:36;;;;;;;0.77;0.55;;;15.70;58.10;;;;;;4081870;29;20074;-47
2023/05/21 01:04:59;;;;;;;1.80;0.50;;;15.70;58.20;;;;;;4087944;28;20547;-45
2023/05/21 01:07:22;;;;;;;0.73;0.50;;;15.70;58.10;;;;;;4087050;28;20047;-53
2023/05/21 01:09:44;;;;;;;0.70;0.50;;;15.70;58.00;;;;;;4067208;29;20044;-46
2023/05/21 01:12:08;;;;;;;0.93;0.57;;;15.70;58.00;;;;;;4077847;29;20126;-47
2023/05/21 01:14:31;;;;;;;0.98;0.50;;;15.70;57.90;;;;;;4081222;28;20158;-47
2023/05/21 01:16:54;;;;;;;1.67;0.60;;;15.80;58.00;;;;;;4069957;29;21537;-47
2023/05/21 01:19:19;;;;;;;0.52;0.50;;;15.70;57.90;;;;;;4071505;29;20504;-45
2023/05/21 01:21:46;;;;;;;0.43;0.43;;;15.80;57.90;;;;;;4078997;28;20040;-44
2023/05/21 01:24:08;;;;;;;0.52;0.50;;;15.80;57.90;;;;;;4082017;28;20035;-48
2023/05/21 01:26:32;;;;;;;0.52;0.52;;;15.80;57.80;;;;;;4076144;29;20048;-46
2023/05/21 01:28:54;;;;;;;0.68;0.60;;;15.80;57.70;;;;;;4079989;29;20051;-46
2023/05/21 01:31:36;;;;;;;0.80;0.50;;;15.80;57.70;;;;;;4073451;29;20047;-48
2023/05/21 01:34:04;;;;;;;0.63;0.50;;;15.80;57.70;;;;;;4067326;29;20091;-50
2023/05/21 01:36:33;;;;;;;0.40;0.40;;;15.90;57.70;;;;;;4073650;29;20059;-51
2023/05/21 01:39:06;;;;;;;0.90;0.50;;;15.90;57.70;;;;;;4073114;29;20079;-48
2023/05/21 01:41:36;;;;;;;0.50;0.50;;;15.90;57.70;;;;;;4075683;29;20064;-50
2023/05/21 01:43:59;;;;;;;1.00;0.50;;;15.90;57.70;;;;;;4076238;28;20071;-46
2023/05/21 01:46:24;;;;;;;1.27;0.60;;;15.90;57.60;;;;;;4080868;29;20032;-47
2023/05/21 01:48:49;;;;;;;0.50;0.50;;;16.00;57.60;;;;;;4069467;28;20040;-50
2023/05/21 01:51:12;;;;;;;1.63;0.60;;;16.00;57.60;;;;;;4078864;29;20516;-49
2023/05/21 01:53:37;;;;;;;0.77;0.70;;;16.00;57.60;;;;;;4072084;29;20039;-46
2023/05/21 01:56:01;;;;;;;0.68;0.60;;;16.00;57.50;;;;;;4080296;29;20052;-45
2023/05/21 01:58:24;;;;;;;1.75;0.60;;;16.10;57.60;;;;;;4071512;29;20040;-46
2023/05/21 02:00:47;;;;;;;0.75;0.50;;;16.10;57.60;;;;;;4070543;28;20032;-48
2023/05/21 02:03:09;;;;;;;1.42;0.80;;;16.10;57.70;;;;;;4074345;29;20038;-45
2023/05/21 02:05:32;;;;;;;0.50;0.50;;;16.10;57.80;;;;;;4069478;29;20063;-44
2023/05/21 02:07:54;;;;;;;3.15;0.70;;;16.10;58.10;;;;;;4080574;28;20047;-50
2023/05/21 02:10:17;;;;;;;1.23;0.98;;;16.20;58.40;;;;;;4078752;28;20103;-50
2023/05/21 02:12:39;;;;;;;2.38;0.90;;;16.20;58.60;;;;;;4083373;28;20043;-54
2023/05/21 02:15:02;;;;;;;0.65;0.60;;;16.20;58.70;;;;;;4078940;28;20087;-48
2023/05/21 02:17:24;;;;;;;0.88;0.77;;;16.30;58.80;;;;;;4075108;29;20039;-48
2023/05/21 02:19:47;;;;;;;0.57;0.55;;;16.30;58.90;;;;;;4083317;28;20059;-49
2023/05/21 02:22:10;;;;;;;1.08;0.80;;;16.30;58.90;;;;;;4085633;28;20040;-46
2023/05/21 02:24:32;;;;;;;1.80;0.70;;;16.40;58.90;;;;;;4072173;29;20051;-49
2023/05/21 02:26:55;;;;;;;1.17;0.88;;;16.40;58.90;;;;;;4075706;29;20118;-48
2023/05/21 02:29:17;;;;;;;1.23;0.77;;;16.40;58.80;;;;;;4078417;29;20086;-47
2023/05/21 02:31:40;;;;;;;0.70;0.70;;;16.40;58.80;;;;;;4078604;29;20105;-52
2023/05/21 02:34:02;;;;;;;1.02;0.80;;;16.40;58.70;;;;;;4075658;29;20051;-52
2023/05/21 02:36:27;;;;;;;2.28;0.63;;;16.50;58.60;;;;;;4080994;28;20091;-48
2023/05/21 02:38:50;;;;;;;1.13;0.77;;;16.50;58.50;;;;;;4076793;29;20648;-49
2023/05/21 02:41:12;;;;;;;0.80;0.80;;;16.50;58.40;;;;;;4077789;29;20134;-47
2023/05/21 02:43:35;;;;;;;0.88;0.73;;;16.60;58.40;;;;;;4080031;28;20474;-53
2023/05/21 02:45:57;;;;;;;1.30;0.65;;;16.60;58.30;;;;;;4062082;29;20040;-52
2023/05/21 02:48:19;;;;;;;1.20;0.60;;;16.60;58.20;;;;;;4088554;28;20555;-50
2023/05/21 02:50:42;;;;;;;2.20;0.90;;;16.60;58.20;;;;;;4075289;29;20480;-47
2023/05/21 02:53:05;;;;;;;0.90;0.80;;;16.70;58.20;;;;;;4073790;29;20032;-50
2023/05/21 02:55:27;;;;;;;1.08;0.70;;;16.70;58.20;;;;;;4070213;29;20428;-48
2023/05/21 02:57:50;;;;;;;1.52;0.90;;;16.80;58.40;;;;;;4073332;29;20090;-47
2023/05/21 03:00:13;;;;;;;0.75;0.70;;;16.80;58.60;;;;;;4079488;28;20044;-48
2023/05/21 03:02:35;;;;;;;1.48;0.73;;;16.80;58.50;;;;;;4075530;28;20179;-54
2023/05/21 03:04:57;;;;;;;1.65;0.70;;;16.80;58.30;;;;;;4073858;29;20463;-54
2023/05/21 03:07:20;;;;;;;1.85;0.68;;;16.90;58.20;;;;;;4069056;29;20069;-53
2023/05/21 03:09:43;;;;;;;2.13;0.77;;;16.90;58.00;;;;;;4078258;29;20466;-52
2023/05/21 03:12:05;;;;;;;1.10;0.73;;;16.90;57.90;;;;;;4077252;29;20039;-53
2023/05/21 03:14:28;;;;;;;1.30;0.98;;;17.00;57.90;;;;;;4072152;29;20047;-51
2023/05/21 03:16:50;;;;;;;2.30;0.77;;;17.00;58.50;;;;;;4070037;29;20537;-51
2023/05/21 03:19:13;;;;;;;2.22;0.95;;;17.00;58.00;;;;;;4071898;29;20042;-48
2023/05/21 03:21:35;;;;;;;3.58;1.38;;;17.10;58.10;;;;;;4077025;28;20051;-49
2023/05/21 03:23:58;;;;;;;3.28;1.75;;;17.10;58.10;;;;;;4076616;28;20062;-53
2023/05/21 03:26:21;;;;;;;2.90;1.67;;;17.10;58.10;;;;;;4070795;28;20055;-51
2023/05/21 03:28:43;;;;;;;6.03;2.15;;;17.20;58.10;;;;;;4068365;28;20047;-49
2023/05/21 03:31:06;;;;;;;4.53;1.95;;;17.20;58.00;;;;;;4074708;29;20106;-49
2023/05/21 03:33:28;;;;;;;7.05;2.33;;;17.30;58.00;;;;;;4080491;28;20071;-51
2023/05/21 03:35:50;;;;;;;5.38;2.10;;;17.30;57.80;;;;;;4069697;29;20483;-47
2023/05/21 03:38:13;;;;;;;3.17;1.80;;;17.40;57.70;;;;;;4072521;29;20032;-56
2023/05/21 03:40:35;;;;;;;4.25;1.83;;;17.40;57.60;;;;;;4077944;28;20056;-51
2023/05/21 03:42:58;;;;;;;3.67;2.10;;;17.50;57.40;;;;;;4069353;28;20044;-54
2023/05/21 03:45:20;;;;;;;3.65;1.80;;;17.50;57.30;;;;;;4073375;28;20047;-54
2023/05/21 03:47:42;;;;;;;4.32;1.50;;;17.60;57.10;;;;;;4072060;29;20114;-52
2023/05/21 03:50:06;;;;;;;3.50;1.50;;;17.60;56.90;;;;;;4066982;29;20555;-52
2023/05/21 03:52:28;;;;;;;4.80;1.58;;;17.70;56.80;;;;;;4071923;28;20040;-56
2023/05/21 03:54:51;;;;;;;3.72;1.52;;;17.80;56.90;;;;;;4075130;29;20126;-49
2023/05/21 03:57:13;;;;;;;3.45;1.63;;;17.80;57.00;;;;;;4061603;29;20132;-49
2023/05/21 03:59:35;;;;;;;3.55;1.40;;;17.90;57.00;;;;;;4077368;29;20086;-54
2023/05/21 04:01:58;;;;;;;2.85;1.40;;;18.00;56.90;;;;;;4077432;29;20044;-51
2023/05/21 04:04:20;;;;;;;2.05;1.20;;;18.00;56.80;;;;;;4078490;28;20138;-48
2023/05/21 04:06:43;;;;;;;2.40;1.02;;;18.00;56.80;;;;;;4074662;29;20044;-54
2023/05/21 04:09:05;;;;;;;3.00;1.00;;;18.10;56.50;;;;;;4074261;28;20039;-53
2023/05/21 04:11:28;;;;;;;2.40;0.80;;;18.20;56.30;;;;;;4073619;29;20395;-52
2023/05/21 04:13:50;;;;;;;1.38;0.90;;;18.20;56.10;;;;;;4069877;28;20083;-51
2023/05/21 04:16:17;;;;;;;2.47;1.02;;;18.30;56.00;;;;;;4062789;29;20052;-52
2023/05/21 04:18:40;;;;;;;1.77;0.90;;;18.30;55.90;;;;;;4067415;29;20047;-51
2023/05/21 04:21:03;;;;;;;1.27;0.80;;;18.40;55.80;;;;;;4062800;28;20028;-49
2023/05/21 04:23:25;;;;;;;1.83;0.60;;;18.50;55.70;;;;;;4065185;28;20123;-54
2023/05/21 04:25:49;;;;;;;2.03;1.13;;;18.50;55.50;;;;;;4065967;29;20461;-54
2023/05/21 04:28:11;;;;;;;2.28;0.47;;;18.60;55.40;;;;;;4061454;29;20075;-48
2023/05/21 04:30:35;;;;;;;0.60;0.50;;;18.60;55.30;;;;;;4066576;29;20059;-52
2023/05/21 04:33:03;;;;;;;1.85;0.80;;;18.70;55.20;;;;;;4067521;28;20047;-47
2023/05/21 04:35:26;;;;;;;3.33;0.63;;;18.80;55.10;;;;;;4064774;29;20062;-55
2023/05/21 04:37:48;;;;;;;2.20;0.70;;;18.80;55.00;;;;;;4066497;28;20028;-54
2023/05/21 04:40:23;;;;;;;0.98;0.50;;;18.80;54.90;;;;;;4064634;28;20467;-48
2023/05/21 04:42:47;;;;;;;0.80;0.52;;;18.90;54.90;;;;;;4069354;28;20039;-51
2023/05/21 04:45:10;;;;;;;2.25;0.52;;;19.00;54.80;;;;;;4056480;29;20500;-50
2023/05/21 04:47:34;;;;;;;1.10;0.50;;;19.00;54.70;;;;;;4070811;28;20048;-55
2023/05/21 04:49:58;;;;;;;0.40;0.40;;;19.00;54.60;;;;;;4069800;29;20298;-51
2023/05/21 04:52:20;;;;;;;;;;;19.10;54.50;;;;;;4067197;29;20027;-46
2023/05/21 04:54:44;;;;;;;0.52;0.52;;;19.10;54.50;;;;;;4068687;29;20088;-48
2023/05/21 04:57:07;;;;;;;1.17;0.50;;;19.20;54.50;;;;;;4069066;29;20413;-50
2023/05/21 04:59:30;;;;;;;1.52;0.50;;;19.20;54.50;;;;;;4074378;28;20522;-51
2023/05/21 05:01:53;;;;;;;0.50;0.50;;;19.20;54.50;;;;;;4061312;29;20616;-51
2023/05/21 05:04:15;;;;;;;1.05;0.60;;;19.20;54.50;;;;;;4070978;29;20650;-49
2023/05/21 05:06:38;;;;;;;3.03;0.50;;;19.20;54.50;;;;;;4071450;28;20118;-46
2023/05/21 05:09:00;;;;;;;1.35;0.40;;;19.20;54.50;;;;;;4072873;28;20032;-49
2023/05/21 05:11:23;;;;;;;0.47;0.30;;;19.10;54.50;;;;;;4071970;29;20071;-50
2023/05/21 05:13:45;;;;;;;0.30;0.30;;;19.20;54.50;;;;;;4074736;29;20046;-49
2023/05/21 05:16:08;;;;;;;0.30;0.30;;;19.20;54.50;;;;;;4075680;29;20066;-52
2023/05/21 05:18:32;;;;;;;0.55;0.47;;;19.20;54.60;;;;;;4070998;29;20676;-48
2023/05/21 05:20:55;;;;;;;0.43;0.30;;;19.10;54.70;;;;;;4072257;29;20531;-46
2023/05/21 05:23:17;;;;;;;0.75;0.47;;;19.10;54.50;;;;;;4077034;28;20071;-49
2023/05/21 05:25:40;;;;;;;1.08;0.40;;;19.10;54.70;;;;;;4078851;29;20090;-50
2023/05/21 05:28:02;;;;;;;0.32;0.30;;;19.10;54.80;;;;;;4072099;29;20040;-49
2023/05/21 05:30:25;;;;;;;0.38;0.35;;;19.00;54.80;;;;;;4079107;28;20459;-50
2023/05/21 05:32:48;;;;;;;1.13;0.38;;;19.00;54.90;;;;;;4075939;28;20044;-50
2023/05/21 05:35:10;;;;;;;1.10;0.43;;;19.00;55.00;;;;;;4062356;28;20427;-51
2023/05/21 05:37:33;;;;;;;0.57;0.50;;;19.00;55.00;;;;;;4071676;29;20063;-51
2023/05/21 05:39:55;;;;;;;0.65;0.40;;;19.00;55.00;;;;;;4078536;29;20151;-54
2023/05/21 05:42:18;;;;;;;0.40;0.40;;;19.00;55.10;;;;;;4072757;28;20050;-51
2023/05/21 05:44:40;;;;;;;0.47;0.47;;;19.00;55.10;;;;;;4073496;28;20496;-50
2023/05/21 05:47:07;;;;;;;0.50;0.40;;;19.00;55.20;;;;;;4072818;28;20750;-45
2023/05/21 05:49:30;;;;;;;0.95;0.50;;;19.00;55.20;;;;;;4068716;29;20039;-49
2023/05/21 05:51:52;;;;;;;1.38;0.55;;;19.00;55.20;;;;;;4076368;28;20098;-49
2023/05/21 05:54:15;;;;;;;0.30;0.30;;;19.00;55.40;;;;;;4072003;28;20756;-54
2023/05/21 05:56:37;;;;;;;0.73;0.43;;;18.90;55.40;;;;;;4070151;29;20418;-52
2023/05/21 05:59:00;;;;;;;0.75;0.55;;;18.90;55.40;;;;;;4069028;29;20036;-46
2023/05/21 06:01:23;;;;;;;2.38;0.70;;;18.90;55.30;;;;;;4074446;29;20050;-52
2023/05/21 06:03:46;;;;;;;0.68;0.50;;;18.90;55.20;;;;;;4072089;29;20043;-50
2023/05/21 06:06:08;;;;;;;2.05;0.70;;;18.90;55.20;;;;;;4072338;29;20054;-51
2023/05/21 06:08:33;;;;;;;0.93;0.60;;;18.90;55.20;;;;;;4069797;29;20036;-48
2023/05/21 06:10:55;;;;;;;1.35;0.73;;;18.90;55.20;;;;;;4077441;28;20465;-48
2023/05/21 06:13:18;;;;;;;1.20;0.70;;;18.90;55.20;;;;;;4068553;29;20040;-49
2023/05/21 06:15:43;;;;;;;0.90;0.52;;;18.90;55.20;;;;;;4072867;29;20082;-50
2023/05/21 06:18:05;;;;;;;3.35;1.15;;;18.90;55.20;;;;;;4076283;28;20437;-46
2023/05/21 06:20:28;;;;;;;1.60;0.55;;;19.00;55.30;;;;;;4076047;29;20047;-53
2023/05/21 06:22:51;;;;;;;1.10;0.73;;;19.00;55.30;;;;;;4072164;29;20479;-46
2023/05/21 06:25:14;;;;;;;0.98;0.70;;;19.20;54.50;;;;;;4072497;29;20448;-50
2023/05/21 06:27:37;;;;;;;1.75;1.20;;;19.70;53.60;;;;;;4071302;29;20344;-47
2023/05/21 06:30:00;;;;;;;2.00;0.90;;;20.40;51.80;;;;;;4071696;28;20036;-51
2023/05/21 06:32:24;;;;;;;1.48;0.80;;;21.20;50.50;;;;;;4071026;28;20043;-46
2023/05/21 06:34:46;;;;;;;2.00;0.80;;;21.90;47.80;;;;;;4071959;29;20043;-50
2023/05/21 06:37:10;;;;;;;1.02;0.50;;;22.10;47.20;;;;;;4071642;29;20394;-50
2023/05/21 06:39:32;;;;;;;1.42;0.60;;;21.60;48.00;;;;;;4062468;29;20142;-48
2023/05/21 06:41:54;;;;;;;1.15;0.70;;;21.10;49.00;;;;;;4069967;28;20125;-52
2023/05/21 06:44:17;;;;;;;1.55;0.75;;;20.60;50.10;;;;;;4075597;28;20059;-53
2023/05/21 06:46:43;;;;;;;0.93;0.50;;;20.30;50.80;;;;;;4071612;29;20051;-51
2023/05/21 06:49:05;;;;;;;2.40;0.43;;;20.00;51.40;;;;;;4068829;29;20043;-49
2023/05/21 06:51:28;;;;;;;0.40;0.40;;;19.70;52.00;;;;;;4073145;28;20031;-51
2023/05/21 06:53:50;;;;;;;1.52;0.30;;;19.50;52.60;;;;;;4069595;29;21916;-51
2023/05/21 06:56:13;;;;;;;0.80;0.52;;;19.30;53.00;;;;;;4071840;29;20419;-51
2023/05/21 06:58:35;;;;;;;0.85;0.50;;;19.20;53.40;;;;;;4073757;28;20066;-50
2023/05/21 07:00:58;;;;;;;0.82;0.70;;;19.10;53.70;;;;;;4072380;28;20211;-47
2023/05/21 07:03:21;;;;;;;0.68;0.50;;;19.00;53.80;;;;;;4072531;29;20040;-48
2023/05/21 07:05:43;;;;;;;0.55;0.50;;;18.90;54.10;;;;;;4071617;28;20044;-53
2023/05/21 07:08:06;;;;;;;0.75;0.35;;;18.90;54.30;;;;;;4073100;29;20552;-51
2023/05/21 07:10:28;;;;;;;0.60;0.45;;;18.80;54.30;;;;;;4075795;29;20049;-47
2023/05/21 07:12:51;;;;;;;2.20;0.70;;;18.70;54.50;;;;;;4082618;29;20428;-50
2023/05/21 07:15:13;;;;;;;2.38;0.73;;;18.70;54.90;;;;;;4082243;28;20043;-50
2023/05/21 07:17:36;;;;;;;5.45;0.68;;;18.70;55.40;;;;;;4073554;28;20047;-47
2023/05/21 07:19:58;;;;;;;4.45;0.90;;;18.70;55.70;;;;;;4080435;28;20103;-50
2023/05/21 07:22:21;;;;;;;1.63;0.70;;;18.70;56.20;;;;;;4059229;29;20122;-44
2023/05/21 07:24:43;;;;;;;2.78;0.50;;;18.70;56.40;;;;;;4078337;29;20118;-45
2023/05/21 07:27:06;;;;;;;1.15;0.50;;;18.70;56.50;;;;;;4074989;29;20044;-50
2023/05/21 07:29:28;;;;;;;1.27;0.40;;;18.70;56.70;;;;;;4070821;29;20109;-51
2023/05/21 07:31:51;;;;;;;0.50;0.50;;;18.70;56.90;;;;;;4079092;29;20956;-49
2023/05/21 07:34:13;;;;;;;7.55;1.52;;;18.70;57.00;;;;;;4076170;29;20039;-49
2023/05/21 07:36:36;;;;;;;7.78;0.95;;;18.70;57.20;;;;;;4086022;28;20459;-47
2023/05/21 07:38:59;;;;;;;4.50;1.10;;;18.70;57.10;;;;;;4082879;28;20051;-50
2023/05/21 07:41:21;;;;;;;6.22;1.70;;;18.60;56.90;;;;;;4080852;28;20059;-48
2023/05/21 07:43:44;;;;;;;4.32;1.65;;;18.60;56.50;;;;;;4081413;28;20055;-48
2023/05/21 07:46:06;;;;;;;4.50;1.75;;;18.60;56.40;;;;;;4080604;29;20670;-49
2023/05/21 07:48:28;;;;;;;10.38;2.45;;;18.60;56.30;;;;;;4080908;29;20043;-48
2023/05/21 07:50:51;;;;;;;5.90;2.22;;;18.60;56.70;;;;;;4076852;28;20028;-48
2023/05/21 07:53:13;;;;;;;8.48;2.63;;;18.50;57.00;;;;;;4081923;28;20051;-48
2023/05/21 07:55:36;;;;;;;4.80;2.10;;;18.50;57.20;;;;;;4072757;28;20417;-44
2023/05/21 07:58:00;;;;;;;4.80;2.47;;;18.50;57.60;;;;;;4075851;28;20039;-50
2023/05/21 08:00:23;;;;;;;6.65;2.38;;;18.50;57.70;;;;;;4077775;29;20055;-48
2023/05/21 08:02:46;;;;;;;6.10;2.35;;;18.50;57.90;;;;;;4074296;29;20058;-48
2023/05/21 08:05:09;;;;;;;3.15;1.92;;;18.50;58.00;;;;;;4074018;29;20760;-46
2023/05/21 08:07:31;;;;;;;5.13;2.20;;;18.50;58.30;;;;;;4075739;29;20074;-46
2023/05/21 08:09:54;;;;;;;6.50;2.22;;;18.50;58.30;;;;;;4077572;28;20086;-50
2023/05/21 08:12:18;;;;;;;4.82;2.80;;;18.50;58.40;;;;;;4078709;28;20035;-43
2023/05/21 08:14:40;;;;;;;3.83;1.90;;;18.50;58.50;;;;;;4075774;29;20492;-47
2023/05/21 08:17:03;;;;;;;4.18;2.40;;;18.60;58.70;;;;;;4077188;29;20036;-49
2023/05/21 08:19:25;;;;;;;4.68;1.98;;;18.60;58.60;;;;;;4082672;28;20488;-52
2023/05/21 08:21:48;;;;;;;5.57;2.20;;;18.60;58.60;;;;;;4072643;29;20251;-43
2023/05/21 08:24:10;;;;;;;6.30;2.50;;;18.60;58.60;;;;;;4070752;29;20040;-42
2023/05/21 08:26:33;;;;;;;3.67;2.10;;;18.60;58.60;;;;;;4076907;29;20050;-49
2023/05/21 08:28:55;;;;;;;5.57;2.05;;;18.60;58.60;;;;;;4078951;29;20040;-47
2023/05/21 08:31:20;;;;;;;5.13;2.00;;;18.60;58.60;;;;;;4078989;28;20122;-43
2023/05/21 08:33:51;;;;;;;3.63;1.80;;;18.60;58.60;;;;;;4077181;28;20552;-47
2023/05/21 08:36:13;;;;;;;2.65;1.67;;;18.60;58.80;;;;;;4060674;29;20059;-42
2023/05/21 08:38:35;;;;;;;2.58;1.77;;;18.60;58.80;;;;;;4081546;28;20049;-44
2023/05/21 08:40:59;;;;;;;4.03;1.77;;;18.60;59.00;;;;;;4078248;29;20064;-43
2023/05/21 08:43:22;;;;;;;4.50;1.67;;;18.60;59.10;;;;;;4076933;29;20163;-44
2023/05/21 08:45:53;;;;;;;5.88;1.77;;;18.60;59.20;;;;;;4069974;29;20337;-43
2023/05/21 08:48:16;;;;;;;3.28;1.73;;;18.60;59.20;;;;;;4070901;29;20043;-44
2023/05/21 08:50:39;;;;;;;2.22;1.48;;;18.60;59.30;;;;;;4069264;29;20561;-45
2023/05/21 08:53:02;;;;;;;3.78;1.70;;;18.60;59.20;;;;;;4073596;29;20086;-43
2023/05/21 08:55:25;;;;;;;2.60;1.42;;;18.60;59.30;;;;;;4073271;29;20059;-43
2023/05/21 08:57:48;;;;;;;3.13;1.35;;;18.60;59.40;;;;;;4076544;29;20043;-46
2023/05/21 09:00:11;;;;;;;3.50;1.30;;;18.60;59.40;;;;;;4072823;29;20043;-45
2023/05/21 09:02:37;;;;;;;2.90;1.40;;;18.50;59.30;;;;;;4074711;28;20486;-45
2023/05/21 09:05:02;;;;;;;3.55;1.10;;;18.50;59.40;;;;;;4070286;29;20459;-48
2023/05/21 09:07:29;;;;;;;4.68;1.02;;;18.50;59.50;;;;;;4081024;28;20070;-50
2023/05/21 09:09:56;;;;;;;3.70;1.40;;;18.50;59.50;;;;;;4071458;29;20475;-48
2023/05/21 09:12:18;;;;;;;3.22;1.20;;;18.50;59.80;;;;;;4073032;29;20592;-47
2023/05/21 09:14:42;;;;;;;3.65;1.40;;;18.50;59.60;;;;;;4076326;29;20032;-43
2023/05/21 09:17:05;;;;;;;3.00;1.15;;;18.50;59.80;;;;;;4069952;29;20035;-49
2023/05/21 09:19:28;;;;;;;2.72;1.05;;;18.50;59.70;;;;;;4073175;29;20784;-47
2023/05/21 09:21:51;;;;;;;2.95;1.08;;;18.60;59.70;;;;;;4069108;29;20470;-43
2023/05/21 09:24:14;;;;;;;1.90;0.98;;;18.60;60.00;;;;;;4061399;28;20172;-48
2023/05/21 09:26:37;;;;;;;1.52;0.90;;;18.60;59.80;;;;;;4072576;29;20415;-45
2023/05/21 09:29:00;;;;;;;1.02;0.60;;;18.60;59.80;;;;;;4074459;29;20046;-47
2023/05/21 09:31:24;;;;;;;2.90;1.13;;;18.50;59.70;;;;;;4074139;29;20052;-51
2023/05/21 09:33:47;;;;;;;1.40;0.93;;;18.50;59.80;;;;;;4071461;28;20400;-51
2023/05/21 09:36:10;;;;;;;1.42;0.68;;;18.50;59.80;;;;;;4074908;28;20098;-45
2023/05/21 09:38:34;;;;;;;1.67;0.93;;;18.50;59.80;;;;;;4074379;28;20040;-45
2023/05/21 09:40:56;;;;;;;1.58;0.70;;;18.50;59.80;;;;;;4072927;29;20075;-45
2023/05/21 09:43:21;;;;;;;1.63;0.80;;;18.50;59.80;;;;;;4073151;29;20035;-49
2023/05/21 09:45:55;;;;;;;6.82;1.08;;;18.50;59.80;;;;;;4072347;29;20043;-51
2023/05/21 09:48:31;;;;;;;1.17;0.60;;;18.50;59.80;;;;;;4073524;29;20523;-47
2023/05/21 09:50:53;;;;;;;2.28;0.70;;;18.50;59.80;;;;;;4064826;29;20886;-49
2023/05/21 09:53:16;;;;;;;2.75;0.80;;;18.50;59.90;;;;;;4071641;29;20310;-50
2023/05/21 09:55:40;;;;;;;1.90;0.60;;;18.50;59.90;;;;;;4073961;28;20137;-51
2023/05/21 09:58:03;;;;;;;0.82;0.60;;;18.50;60.00;;;;;;4071720;29;20527;-47
2023/05/21 10:00:27;;;;;;;3.10;1.00;;;18.50;60.00;;;;;;4073908;28;20054;-45
2023/05/21 10:02:59;;;;;;;2.38;0.70;;;18.50;60.60;;;;;;4070336;29;20817;-46
2023/05/21 10:05:25;;;;;;;1.23;0.88;;;18.50;60.10;;;;;;4072975;29;20047;-48
2023/05/21 10:07:54;;;;;;;3.47;1.05;;;18.50;60.10;;;;;;4073831;29;20142;-49
2023/05/21 10:10:20;;;;;;;3.33;1.00;;;18.50;60.20;;;;;;4073861;29;20050;-43
2023/05/21 10:12:48;;;;;;;4.80;1.00;;;18.50;59.60;;;;;;4067128;29;20078;-46
2023/05/21 10:15:15;;;;;;;3.75;1.10;;;18.40;58.30;;;;;;4074351;28;20047;-45
2023/05/21 10:17:38;;;;;;;2.15;1.23;;;18.40;58.10;;;;;;4072568;29;20139;-43
2023/05/21 10:20:03;;;;;;;4.43;1.27;;;18.40;58.10;;;;;;4073010;29;20543;-48
2023/05/21 10:22:26;;;;;;;3.33;1.15;;;18.40;58.90;;;;;;4075077;29;20416;-48
2023/05/21 10:24:49;;;;;;;3.80;1.83;;;18.50;59.50;;;;;;4075427;29;20110;-48
2023/05/21 10:27:13;;;;;;;3.50;1.45;;;18.60;60.90;;;;;;4072175;29;20043;-51
2023/05/21 10:29:37;;;;;;;3.78;1.50;;;18.60;60.70;;;;;;4076157;29;20448;-53
2023/05/21 10:32:01;;;;;;;4.20;1.40;;;18.70;60.40;;;;;;4070495;29;20206;-45
2023/05/21 10:34:24;;;;;;;2.17;1.20;;;18.70;60.50;;;;;;4069947;28;20047;-53
2023/05/21 10:36:48;;;;;;;3.70;1.25;;;18.70;61.00;;;;;;4070046;29;20048;-51
2023/05/21 10:39:13;;;;;;;6.63;1.58;;;18.70;60.90;;;;;;4068376;29;20055;-47
2023/05/21 10:42:05;;;;;;;1.10;0.95;;;18.80;60.60;;;;;;4073012;28;20051;-50
2023/05/21 10:44:43;;;;;;;4.10;1.17;;;18.80;60.10;;;;;;4079205;28;20066;-53
2023/05/21 10:47:34;;;;;;;2.17;1.02;;;18.80;59.90;;;;;;4066095;28;20040;-50
2023/05/21 10:50:14;;;;;;;3.17;1.48;;;18.80;59.90;;;;;;4080840;28;20083;-47
2023/05/21 10:52:52;;;;;;;3.10;0.95;;;18.80;59.80;;;;;;4068488;29;20245;-49
2023/05/21 10:55:38;;;;;;;4.97;0.95;;;18.80;59.80;;;;;;4073880;29;20047;-45
2023/05/21 10:58:37;;;;;;;3.85;1.30;;;18.80;59.60;;;;;;4074033;29;20122;-53
2023/05/21 11:01:01;;;;;;;4.80;1.42;;;18.80;59.60;;;;;;4076707;29;20027;-52
2023/05/21 11:03:24;;;;;;;4.72;1.08;;;18.80;59.30;;;;;;4078477;28;20510;-52
2023/05/21 11:05:56;;;;;;;5.22;1.33;;;18.80;59.10;;;;;;4081470;28;20517;-54
2023/05/21 11:08:22;;;;;;;7.97;1.77;;;18.80;59.10;;;;;;4083213;28;20047;-53
2023/05/21 11:10:50;;;;;;;7.45;1.33;;;18.80;59.10;;;;;;4071501;28;20032;-53
2023/05/21 11:13:15;;;;;;;3.40;1.23;;;18.80;59.00;;;;;;4073010;29;20040;-52
2023/05/21 11:15:57;;;;;;;4.05;1.15;;;18.80;58.90;;;;;;4077808;28;20051;-47
2023/05/21 11:18:20;;;;;;;7.50;1.13;;;18.80;58.90;;;;;;4073247;29;20035;-50
2023/05/21 11:20:50;;;;;;;2.95;1.02;;;18.80;58.80;;;;;;4084740;28;20534;-49
2023/05/21 11:23:14;;;;;;;6.30;1.50;;;18.80;58.80;;;;;;4075297;29;20046;-50
2023/05/21 11:25:36;;;;;;;4.90;1.20;;;18.80;58.70;;;;;;4078281;29;20102;-50
2023/05/21 11:28:08;;;;;;;1.38;0.80;;;18.80;58.80;;;;;;4071545;29;20040;-50
2023/05/21 11:30:30;;;;;;;10.15;1.70;;;18.80;59.00;;;;;;4081070;28;20102;-55
2023/05/21 11:33:12;;;;;;;16.08;1.73;;;18.80;59.00;;;;;;4074497;29;20070;-54
2023/05/21 11:35:53;;;;;;;5.32;1.02;;;18.80;59.00;;;;;;4062440;29;20135;-47
2023/05/21 11:38:16;;;;;;;8.18;1.33;;;18.90;59.10;;;;;;4074015;29;20624;-50
2023/05/21 11:40:53;;;;;;;4.47;0.95;;;18.90;59.00;;;;;;4080187;29;20043;-55
2023/05/21 11:43:17;;;;;;;8.10;1.23;;;18.90;58.90;;;;;;4078069;29;20494;-61
2023/05/21 11:45:45;;;;;;;3.38;1.20;;;18.80;58.70;;;;;;4080013;28;20042;-55
2023/05/21 11:48:13;;;;;;;12.68;1.70;;;18.80;58.70;;;;;;4072350;28;20476;-47
2023/05/21 11:50:36;;;;;;;5.50;1.38;;;18.90;59.00;;;;;;4082267;28;20130;-53
2023/05/21 11:52:59;;;;;;;8.13;1.50;;;18.90;58.80;;;;;;4076041;29;20039;-52
2023/05/21 11:55:24;;;;;;;9.30;1.20;;;18.90;58.80;;;;;;4074120;29;20067;-50
2023/05/21 11:57:47;;;;;;;4.38;1.20;;;18.80;58.70;;;;;;4067221;29;20071;-51
2023/05/21 12:00:14;;;;;;;5.88;1.02;;;18.80;58.40;;;;;;4075587;29;20032;-50
2023/05/21 12:02:36;;;;;;;2.10;1.02;;;18.80;58.70;;;;;;4057094;28;20056;-53
2023/05/21 12:04:59;;;;;;;2.25;0.80;;;18.70;58.90;;;;;;4078665;28;20394;-52
2023/05/21 12:07:21;;;;;;;5.72;1.00;;;18.70;59.20;;;;;;4078396;28;20039;-50
2023/05/21 12:09:46;;;;;;;1.95;0.80;;;18.70;59.40;;;;;;4083199;28;20460;-55
2023/05/21 12:12:10;;;;;;;1.95;1.05;;;18.70;58.10;;;;;;4089389;28;20093;-53
2023/05/21 12:14:32;;;;;;;2.80;1.40;;;18.60;60.30;;;;;;4075592;29;20043;-46
2023/05/21 12:16:55;;;;;;;7.00;1.42;;;18.60;60.30;;;;;;4077450;28;20079;-49
2023/05/21 12:19:18;;;;;;;4.82;1.13;;;18.70;60.30;;;;;;4079026;29;20122;-52
2023/05/21 12:21:41;;;;;;;3.47;1.20;;;18.70;60.60;;;;;;4073705;29;20264;-51
2023/05/21 12:24:04;;;;;;;4.63;1.83;;;18.70;60.60;;;;;;4082386;28;20036;-53
2023/05/21 12:26:27;;;;;;;1.95;0.90;;;18.70;60.40;;;;;;4077834;29;21388;-47
2023/05/21 12:28:50;;;;;;;4.18;1.08;;;18.70;60.20;;;;;;4080683;28;20043;-50
2023/05/21 12:31:16;;;;;;;2.23;0.87;;;18.70;60.10;;;;;;4076088;29;20560;-47